sensor_id;sensor_type;location;lat;lon;timestamp;P1;durP1;ratioP1;P2;durP2;ratioP2
74543;SDS011;63016;55.030;38.710;2023-01-19T00:01:22;27.00;;;8.60;;
74543;SDS011;63016;55.030;38.710;2023-01-19T00:03:48;27.98;;;10.25;;
74543;SDS011;63016;55.030;38.710;2023-01-19T00:06:14;29.08;;;9.75;;
74543;SDS011;63016;55.030;38.710;2023-01-19T00:08:39;29.92;;;9.98;;
74543;SDS011;63016;55.030;38.710;2023-01-19T00:11:05;29.88;;;10.55;;
74543;SDS011;63016;55.030;38.710;2023-01-19T00:13:31;28.65;;;10.50;;
74543;SDS011;63016;55.030;38.710;2023-01-19T00:15:56;30.45;;;10.15;;
74543;SDS011;63016;55.030;38.710;2023-01-19T00:18:22;28.48;;;9.40;;
74543;SDS011;63016;55.030;38.710;2023-01-19T00:20:48;30.45;;;10.02;;
74543;SDS011;63016;55.030;38.710;2023-01-19T00:23:14;29.83;;;9.68;;
74543;SDS011;63016;55.030;38.710;2023-01-19T00:25:41;31.55;;;10.02;;
74543;SDS011;63016;55.030;38.710;2023-01-19T00:28:08;27.95;;;10.25;;
74543;SDS011;63016;55.030;38.710;2023-01-19T00:30:38;30.63;;;10.40;;
74543;SDS011;63016;55.030;38.710;2023-01-19T00:33:04;29.10;;;9.77;;
74543;SDS011;63016;55.030;38.710;2023-01-19T00:35:29;36.03;;;9.65;;
74543;SDS011;63016;55.030;38.710;2023-01-19T00:37:55;26.58;;;9.65;;
74543;SDS011;63016;55.030;38.710;2023-01-19T00:40:21;29.13;;;9.55;;
74543;SDS011;63016;55.030;38.710;2023-01-19T00:42:47;24.55;;;9.30;;
74543;SDS011;63016;55.030;38.710;2023-01-19T00:45:14;24.38;;;9.90;;
74543;SDS011;63016;55.030;38.710;2023-01-19T00:47:49;27.42;;;9.43;;
74543;SDS011;63016;55.030;38.710;2023-01-19T00:50:21;26.20;;;8.52;;
74543;SDS011;63016;55.030;38.710;2023-01-19T00:52:51;29.77;;;8.98;;
74543;SDS011;63016;55.030;38.710;2023-01-19T00:55:18;24.80;;;8.82;;
74543;SDS011;63016;55.030;38.710;2023-01-19T00:57:44;30.10;;;9.38;;
74543;SDS011;63016;55.030;38.710;2023-01-19T01:00:10;25.90;;;8.80;;
74543;SDS011;63016;55.030;38.710;2023-01-19T01:02:38;24.42;;;8.38;;
74543;SDS011;63016;55.030;38.710;2023-01-19T01:05:05;27.27;;;8.40;;
74543;SDS011;63016;55.030;38.710;2023-01-19T01:07:32;21.30;;;8.65;;
74543;SDS011;63016;55.030;38.710;2023-01-19T01:10:16;24.88;;;7.97;;
74543;SDS011;63016;55.030;38.710;2023-01-19T01:12:43;26.77;;;8.27;;
74543;SDS011;63016;55.030;38.710;2023-01-19T01:15:11;18.98;;;7.65;;
74543;SDS011;63016;55.030;38.710;2023-01-19T01:17:37;25.17;;;7.40;;
74543;SDS011;63016;55.030;38.710;2023-01-19T01:20:32;17.25;;;7.85;;
74543;SDS011;63016;55.030;38.710;2023-01-19T01:22:58;20.77;;;7.40;;
74543;SDS011;63016;55.030;38.710;2023-01-19T01:25:25;23.20;;;7.53;;
74543;SDS011;63016;55.030;38.710;2023-01-19T01:27:52;19.38;;;7.53;;
74543;SDS011;63016;55.030;38.710;2023-01-19T01:30:19;21.25;;;6.90;;
74543;SDS011;63016;55.030;38.710;2023-01-19T01:32:45;22.48;;;7.05;;
74543;SDS011;63016;55.030;38.710;2023-01-19T01:35:11;21.20;;;8.27;;
74543;SDS011;63016;55.030;38.710;2023-01-19T01:37:37;25.95;;;6.72;;
74543;SDS011;63016;55.030;38.710;2023-01-19T01:40:04;28.58;;;7.30;;
74543;SDS011;63016;55.030;38.710;2023-01-19T01:42:30;29.02;;;7.90;;
74543;SDS011;63016;55.030;38.710;2023-01-19T01:45:01;22.30;;;6.95;;
74543;SDS011;63016;55.030;38.710;2023-01-19T01:47:35;21.75;;;7.30;;
74543;SDS011;63016;55.030;38.710;2023-01-19T01:50:11;19.58;;;6.22;;
74543;SDS011;63016;55.030;38.710;2023-01-19T01:52:40;18.67;;;6.60;;
74543;SDS011;63016;55.030;38.710;2023-01-19T01:55:09;24.42;;;7.68;;
74543;SDS011;63016;55.030;38.710;2023-01-19T01:57:37;22.10;;;6.65;;
74543;SDS011;63016;55.030;38.710;2023-01-19T02:00:06;19.23;;;7.00;;
74543;SDS011;63016;55.030;38.710;2023-01-19T02:02:33;21.23;;;6.50;;
74543;SDS011;63016;55.030;38.710;2023-01-19T02:05:23;23.70;;;7.40;;
74543;SDS011;63016;55.030;38.710;2023-01-19T02:08:11;17.75;;;6.38;;
74543;SDS011;63016;55.030;38.710;2023-01-19T02:11:01;20.95;;;6.82;;
74543;SDS011;63016;55.030;38.710;2023-01-19T02:13:45;17.52;;;7.03;;
74543;SDS011;63016;55.030;38.710;2023-01-19T02:16:11;22.63;;;7.15;;
74543;SDS011;63016;55.030;38.710;2023-01-19T02:18:38;23.48;;;7.03;;
74543;SDS011;63016;55.030;38.710;2023-01-19T02:21:15;19.17;;;6.57;;
74543;SDS011;63016;55.030;38.710;2023-01-19T02:26:15;20.08;;;6.93;;
74543;SDS011;63016;55.030;38.710;2023-01-19T02:28:50;21.30;;;7.00;;
74543;SDS011;63016;55.030;38.710;2023-01-19T02:31:21;24.27;;;8.88;;
74543;SDS011;63016;55.030;38.710;2023-01-19T02:33:47;18.80;;;7.32;;
74543;SDS011;63016;55.030;38.710;2023-01-19T02:36:16;27.65;;;8.40;;
74543;SDS011;63016;55.030;38.710;2023-01-19T02:38:48;22.02;;;7.88;;
74543;SDS011;63016;55.030;38.710;2023-01-19T02:41:18;20.75;;;7.72;;
74543;SDS011;63016;55.030;38.710;2023-01-19T02:43:47;18.88;;;7.13;;
74543;SDS011;63016;55.030;38.710;2023-01-19T02:46:13;27.48;;;8.20;;
74543;SDS011;63016;55.030;38.710;2023-01-19T02:48:40;23.52;;;8.02;;
74543;SDS011;63016;55.030;38.710;2023-01-19T02:56:41;27.02;;;8.27;;
74543;SDS011;63016;55.030;38.710;2023-01-19T03:07:09;27.48;;;8.20;;
74543;SDS011;63016;55.030;38.710;2023-01-19T03:12:20;29.30;;;7.47;;
74543;SDS011;63016;55.030;38.710;2023-01-19T03:14:56;28.33;;;8.35;;
74543;SDS011;63016;55.030;38.710;2023-01-19T03:17:29;23.85;;;7.70;;
74543;SDS011;63016;55.030;38.710;2023-01-19T03:19:56;24.15;;;8.02;;
74543;SDS011;63016;55.030;38.710;2023-01-19T03:22:26;25.20;;;8.25;;
74543;SDS011;63016;55.030;38.710;2023-01-19T03:24:54;28.05;;;7.82;;
74543;SDS011;63016;55.030;38.710;2023-01-19T03:27:35;27.35;;;7.85;;
74543;SDS011;63016;55.030;38.710;2023-01-19T03:30:15;25.00;;;8.02;;
74543;SDS011;63016;55.030;38.710;2023-01-19T03:33:28;28.33;;;9.20;;
74543;SDS011;63016;55.030;38.710;2023-01-19T03:35:38;27.43;;;9.00;;
74543;SDS011;63016;55.030;38.710;2023-01-19T03:38:09;26.48;;;8.30;;
74543;SDS011;63016;55.030;38.710;2023-01-19T03:40:38;27.95;;;8.43;;
74543;SDS011;63016;55.030;38.710;2023-01-19T03:43:05;24.83;;;7.85;;
74543;SDS011;63016;55.030;38.710;2023-01-19T03:45:31;23.13;;;7.68;;
74543;SDS011;63016;55.030;38.710;2023-01-19T03:47:58;27.70;;;8.25;;
74543;SDS011;63016;55.030;38.710;2023-01-19T03:50:27;19.23;;;7.88;;
74543;SDS011;63016;55.030;38.710;2023-01-19T03:53:08;22.63;;;7.78;;
74543;SDS011;63016;55.030;38.710;2023-01-19T03:55:36;22.60;;;7.22;;
74543;SDS011;63016;55.030;38.710;2023-01-19T03:58:03;22.95;;;7.53;;
74543;SDS011;63016;55.030;38.710;2023-01-19T04:00:29;16.88;;;7.00;;
74543;SDS011;63016;55.030;38.710;2023-01-19T04:02:55;24.00;;;7.40;;
74543;SDS011;63016;55.030;38.710;2023-01-19T04:05:20;17.70;;;7.35;;
74543;SDS011;63016;55.030;38.710;2023-01-19T04:07:47;22.30;;;6.65;;
74543;SDS011;63016;55.030;38.710;2023-01-19T04:10:14;19.23;;;7.18;;
74543;SDS011;63016;55.030;38.710;2023-01-19T04:12:41;24.48;;;7.95;;
74543;SDS011;63016;55.030;38.710;2023-01-19T04:15:06;20.38;;;7.75;;
74543;SDS011;63016;55.030;38.710;2023-01-19T04:17:32;23.55;;;7.32;;
74543;SDS011;63016;55.030;38.710;2023-01-19T04:19:58;22.55;;;7.82;;
74543;SDS011;63016;55.030;38.710;2023-01-19T04:22:24;19.80;;;7.68;;
74543;SDS011;63016;55.030;38.710;2023-01-19T04:24:50;22.77;;;7.65;;
74543;SDS011;63016;55.030;38.710;2023-01-19T04:27:16;24.02;;;7.53;;
74543;SDS011;63016;55.030;38.710;2023-01-19T04:29:41;22.40;;;7.72;;
74543;SDS011;63016;55.030;38.710;2023-01-19T04:32:07;22.95;;;7.82;;
74543;SDS011;63016;55.030;38.710;2023-01-19T04:34:33;19.90;;;6.95;;
74543;SDS011;63016;55.030;38.710;2023-01-19T04:36:58;25.02;;;7.10;;
74543;SDS011;63016;55.030;38.710;2023-01-19T04:39:24;18.25;;;6.63;;
74543;SDS011;63016;55.030;38.710;2023-01-19T04:41:51;16.58;;;7.28;;
74543;SDS011;63016;55.030;38.710;2023-01-19T04:44:17;22.33;;;7.00;;
74543;SDS011;63016;55.030;38.710;2023-01-19T04:46:42;21.98;;;7.55;;
74543;SDS011;63016;55.030;38.710;2023-01-19T04:49:08;24.30;;;6.60;;
74543;SDS011;63016;55.030;38.710;2023-01-19T04:51:34;20.83;;;7.70;;
74543;SDS011;63016;55.030;38.710;2023-01-19T04:54:00;19.33;;;7.18;;
74543;SDS011;63016;55.030;38.710;2023-01-19T04:56:26;22.63;;;7.35;;
74543;SDS011;63016;55.030;38.710;2023-01-19T04:58:52;20.70;;;7.40;;
74543;SDS011;63016;55.030;38.710;2023-01-19T05:01:17;19.88;;;7.30;;
74543;SDS011;63016;55.030;38.710;2023-01-19T05:03:43;26.40;;;7.32;;
74543;SDS011;63016;55.030;38.710;2023-01-19T05:06:09;21.45;;;7.40;;
74543;SDS011;63016;55.030;38.710;2023-01-19T05:08:34;15.93;;;6.72;;
74543;SDS011;63016;55.030;38.710;2023-01-19T05:11:00;21.58;;;7.70;;
74543;SDS011;63016;55.030;38.710;2023-01-19T05:13:26;18.67;;;7.30;;
74543;SDS011;63016;55.030;38.710;2023-01-19T05:15:51;20.02;;;7.10;;
74543;SDS011;63016;55.030;38.710;2023-01-19T05:18:17;16.75;;;6.72;;
74543;SDS011;63016;55.030;38.710;2023-01-19T05:20:42;19.67;;;7.65;;
74543;SDS011;63016;55.030;38.710;2023-01-19T05:23:08;24.20;;;8.50;;
74543;SDS011;63016;55.030;38.710;2023-01-19T05:25:33;23.17;;;7.30;;
74543;SDS011;63016;55.030;38.710;2023-01-19T05:27:59;24.95;;;7.13;;
74543;SDS011;63016;55.030;38.710;2023-01-19T05:30:24;24.70;;;7.88;;
74543;SDS011;63016;55.030;38.710;2023-01-19T05:32:50;25.10;;;8.25;;
74543;SDS011;63016;55.030;38.710;2023-01-19T05:35:15;21.13;;;7.00;;
74543;SDS011;63016;55.030;38.710;2023-01-19T05:37:41;19.45;;;6.57;;
74543;SDS011;63016;55.030;38.710;2023-01-19T05:40:07;23.50;;;6.72;;
74543;SDS011;63016;55.030;38.710;2023-01-19T05:42:33;24.63;;;7.78;;
74543;SDS011;63016;55.030;38.710;2023-01-19T05:45:00;28.60;;;8.88;;
74543;SDS011;63016;55.030;38.710;2023-01-19T05:47:27;18.52;;;7.43;;
74543;SDS011;63016;55.030;38.710;2023-01-19T05:49:53;19.42;;;7.07;;
74543;SDS011;63016;55.030;38.710;2023-01-19T05:52:19;19.23;;;6.40;;
74543;SDS011;63016;55.030;38.710;2023-01-19T05:54:45;22.50;;;7.25;;
74543;SDS011;63016;55.030;38.710;2023-01-19T05:57:12;19.27;;;7.10;;
74543;SDS011;63016;55.030;38.710;2023-01-19T05:59:38;25.30;;;7.93;;
74543;SDS011;63016;55.030;38.710;2023-01-19T06:02:04;23.27;;;8.05;;
74543;SDS011;63016;55.030;38.710;2023-01-19T06:04:30;22.60;;;7.40;;
74543;SDS011;63016;55.030;38.710;2023-01-19T06:06:56;18.88;;;6.82;;
74543;SDS011;63016;55.030;38.710;2023-01-19T06:09:21;19.05;;;7.63;;
74543;SDS011;63016;55.030;38.710;2023-01-19T06:11:47;26.92;;;7.32;;
74543;SDS011;63016;55.030;38.710;2023-01-19T06:14:13;17.77;;;7.05;;
74543;SDS011;63016;55.030;38.710;2023-01-19T06:16:41;23.13;;;6.97;;
74543;SDS011;63016;55.030;38.710;2023-01-19T06:19:06;27.05;;;7.03;;
74543;SDS011;63016;55.030;38.710;2023-01-19T06:21:32;20.48;;;6.43;;
74543;SDS011;63016;55.030;38.710;2023-01-19T06:23:58;21.77;;;6.78;;
74543;SDS011;63016;55.030;38.710;2023-01-19T06:26:23;20.15;;;6.75;;
74543;SDS011;63016;55.030;38.710;2023-01-19T06:28:50;19.60;;;6.38;;
74543;SDS011;63016;55.030;38.710;2023-01-19T06:31:17;17.77;;;6.40;;
74543;SDS011;63016;55.030;38.710;2023-01-19T06:33:43;21.33;;;6.55;;
74543;SDS011;63016;55.030;38.710;2023-01-19T06:36:08;24.85;;;6.78;;
74543;SDS011;63016;55.030;38.710;2023-01-19T06:38:34;20.40;;;6.53;;
74543;SDS011;63016;55.030;38.710;2023-01-19T06:40:59;21.00;;;6.93;;
74543;SDS011;63016;55.030;38.710;2023-01-19T06:43:27;19.17;;;6.60;;
74543;SDS011;63016;55.030;38.710;2023-01-19T06:45:53;19.05;;;6.22;;
74543;SDS011;63016;55.030;38.710;2023-01-19T06:48:18;24.27;;;7.18;;
74543;SDS011;63016;55.030;38.710;2023-01-19T06:50:45;20.48;;;7.65;;
74543;SDS011;63016;55.030;38.710;2023-01-19T06:53:11;21.40;;;7.30;;
74543;SDS011;63016;55.030;38.710;2023-01-19T06:55:36;19.30;;;6.57;;
74543;SDS011;63016;55.030;38.710;2023-01-19T06:58:03;30.75;;;7.57;;
74543;SDS011;63016;55.030;38.710;2023-01-19T07:00:29;24.30;;;6.80;;
74543;SDS011;63016;55.030;38.710;2023-01-19T07:02:55;20.73;;;6.53;;
74543;SDS011;63016;55.030;38.710;2023-01-19T07:05:20;23.45;;;7.25;;
74543;SDS011;63016;55.030;38.710;2023-01-19T07:07:50;17.30;;;6.65;;
74543;SDS011;63016;55.030;38.710;2023-01-19T07:10:17;22.70;;;6.68;;
74543;SDS011;63016;55.030;38.710;2023-01-19T07:12:42;17.50;;;6.40;;
74543;SDS011;63016;55.030;38.710;2023-01-19T07:15:10;19.15;;;7.50;;
74543;SDS011;63016;55.030;38.710;2023-01-19T07:17:36;19.23;;;7.57;;
74543;SDS011;63016;55.030;38.710;2023-01-19T07:20:01;21.17;;;7.30;;
74543;SDS011;63016;55.030;38.710;2023-01-19T07:22:27;20.70;;;7.10;;
74543;SDS011;63016;55.030;38.710;2023-01-19T07:24:53;22.08;;;6.60;;
74543;SDS011;63016;55.030;38.710;2023-01-19T07:27:18;18.58;;;7.20;;
74543;SDS011;63016;55.030;38.710;2023-01-19T07:29:44;26.17;;;8.13;;
74543;SDS011;63016;55.030;38.710;2023-01-19T07:32:09;27.00;;;7.68;;
74543;SDS011;63016;55.030;38.710;2023-01-19T07:34:37;20.58;;;6.22;;
74543;SDS011;63016;55.030;38.710;2023-01-19T07:37:05;17.90;;;7.03;;
74543;SDS011;63016;55.030;38.710;2023-01-19T07:39:31;19.42;;;6.78;;
74543;SDS011;63016;55.030;38.710;2023-01-19T07:41:56;19.27;;;7.93;;
74543;SDS011;63016;55.030;38.710;2023-01-19T07:44:24;23.55;;;7.90;;
74543;SDS011;63016;55.030;38.710;2023-01-19T07:46:50;24.15;;;8.15;;
74543;SDS011;63016;55.030;38.710;2023-01-19T07:49:15;23.02;;;7.85;;
74543;SDS011;63016;55.030;38.710;2023-01-19T07:51:41;23.75;;;7.95;;
74543;SDS011;63016;55.030;38.710;2023-01-19T07:54:07;18.90;;;7.22;;
74543;SDS011;63016;55.030;38.710;2023-01-19T07:56:33;24.40;;;7.63;;
74543;SDS011;63016;55.030;38.710;2023-01-19T07:58:58;28.65;;;9.02;;
74543;SDS011;63016;55.030;38.710;2023-01-19T08:01:24;23.10;;;7.93;;
74543;SDS011;63016;55.030;38.710;2023-01-19T08:03:49;19.50;;;7.45;;
74543;SDS011;63016;55.030;38.710;2023-01-19T08:06:19;35.65;;;9.50;;
74543;SDS011;63016;55.030;38.710;2023-01-19T08:08:47;23.35;;;8.02;;
74543;SDS011;63016;55.030;38.710;2023-01-19T08:11:13;27.67;;;8.93;;
74543;SDS011;63016;55.030;38.710;2023-01-19T08:13:39;21.27;;;8.13;;
74543;SDS011;63016;55.030;38.710;2023-01-19T08:16:05;21.73;;;7.97;;
74543;SDS011;63016;55.030;38.710;2023-01-19T08:18:30;27.48;;;7.63;;
74543;SDS011;63016;55.030;38.710;2023-01-19T08:20:59;23.92;;;8.35;;
74543;SDS011;63016;55.030;38.710;2023-01-19T08:23:25;24.20;;;8.90;;
74543;SDS011;63016;55.030;38.710;2023-01-19T08:25:52;28.42;;;9.43;;
74543;SDS011;63016;55.030;38.710;2023-01-19T08:28:18;26.17;;;9.55;;
74543;SDS011;63016;55.030;38.710;2023-01-19T08:30:44;22.77;;;9.63;;
74543;SDS011;63016;55.030;38.710;2023-01-19T08:33:17;25.13;;;8.10;;
74543;SDS011;63016;55.030;38.710;2023-01-19T08:35:45;35.15;;;9.15;;
74543;SDS011;63016;55.030;38.710;2023-01-19T08:38:13;28.25;;;9.80;;
74543;SDS011;63016;55.030;38.710;2023-01-19T08:40:39;25.25;;;8.43;;
74543;SDS011;63016;55.030;38.710;2023-01-19T08:43:10;24.75;;;9.23;;
74543;SDS011;63016;55.030;38.710;2023-01-19T08:45:37;26.30;;;8.82;;
74543;SDS011;63016;55.030;38.710;2023-01-19T08:48:10;21.90;;;8.18;;
74543;SDS011;63016;55.030;38.710;2023-01-19T08:50:37;32.92;;;9.50;;
74543;SDS011;63016;55.030;38.710;2023-01-19T08:53:03;34.20;;;10.23;;
74543;SDS011;63016;55.030;38.710;2023-01-19T08:55:33;25.10;;;8.88;;
74543;SDS011;63016;55.030;38.710;2023-01-19T08:58:00;25.27;;;9.38;;
74543;SDS011;63016;55.030;38.710;2023-01-19T09:00:28;29.17;;;9.25;;
74543;SDS011;63016;55.030;38.710;2023-01-19T09:02:55;27.25;;;9.25;;
74543;SDS011;63016;55.030;38.710;2023-01-19T09:05:22;29.58;;;9.27;;
74543;SDS011;63016;55.030;38.710;2023-01-19T09:07:48;32.80;;;9.55;;
74543;SDS011;63016;55.030;38.710;2023-01-19T09:10:14;32.80;;;9.93;;
74543;SDS011;63016;55.030;38.710;2023-01-19T09:12:40;37.67;;;10.25;;
74543;SDS011;63016;55.030;38.710;2023-01-19T09:15:08;29.80;;;10.20;;
74543;SDS011;63016;55.030;38.710;2023-01-19T09:17:35;36.17;;;10.18;;
74543;SDS011;63016;55.030;38.710;2023-01-19T09:20:00;30.83;;;9.45;;
74543;SDS011;63016;55.030;38.710;2023-01-19T09:22:26;33.50;;;10.63;;
74543;SDS011;63016;55.030;38.710;2023-01-19T09:24:52;32.95;;;10.50;;
74543;SDS011;63016;55.030;38.710;2023-01-19T09:27:17;32.83;;;10.10;;
74543;SDS011;63016;55.030;38.710;2023-01-19T09:29:43;34.50;;;11.25;;
74543;SDS011;63016;55.030;38.710;2023-01-19T09:32:16;31.42;;;9.50;;
74543;SDS011;63016;55.030;38.710;2023-01-19T09:34:42;37.92;;;10.73;;
74543;SDS011;63016;55.030;38.710;2023-01-19T09:37:08;33.17;;;10.60;;
74543;SDS011;63016;55.030;38.710;2023-01-19T09:39:34;34.15;;;9.68;;
74543;SDS011;63016;55.030;38.710;2023-01-19T09:42:08;26.90;;;10.05;;
74543;SDS011;63016;55.030;38.710;2023-01-19T09:44:49;35.63;;;11.32;;
74543;SDS011;63016;55.030;38.710;2023-01-19T09:47:18;34.47;;;10.73;;
74543;SDS011;63016;55.030;38.710;2023-01-19T09:49:49;32.15;;;10.82;;
74543;SDS011;63016;55.030;38.710;2023-01-19T09:52:22;31.58;;;10.77;;
74543;SDS011;63016;55.030;38.710;2023-01-19T09:54:57;35.95;;;10.82;;
74543;SDS011;63016;55.030;38.710;2023-01-19T09:57:23;33.58;;;10.98;;
74543;SDS011;63016;55.030;38.710;2023-01-19T09:59:51;32.15;;;10.48;;
74543;SDS011;63016;55.030;38.710;2023-01-19T10:10:32;28.08;;;11.15;;
74543;SDS011;63016;55.030;38.710;2023-01-19T10:15:51;32.42;;;11.63;;
74543;SDS011;63016;55.030;38.710;2023-01-19T10:18:45;32.05;;;11.15;;
74543;SDS011;63016;55.030;38.710;2023-01-19T10:24:00;31.17;;;11.80;;
74543;SDS011;63016;55.030;38.710;2023-01-19T10:26:36;25.20;;;9.93;;
74543;SDS011;63016;55.030;38.710;2023-01-19T10:29:09;33.75;;;10.80;;
74543;SDS011;63016;55.030;38.710;2023-01-19T10:31:56;32.40;;;10.88;;
74543;SDS011;63016;55.030;38.710;2023-01-19T10:34:29;30.73;;;11.77;;
74543;SDS011;63016;55.030;38.710;2023-01-19T10:36:56;32.38;;;11.32;;
74543;SDS011;63016;55.030;38.710;2023-01-19T10:39:28;31.42;;;11.95;;
74543;SDS011;63016;55.030;38.710;2023-01-19T10:41:56;27.42;;;10.45;;
74543;SDS011;63016;55.030;38.710;2023-01-19T10:44:26;27.80;;;11.05;;
74543;SDS011;63016;55.030;38.710;2023-01-19T10:46:53;29.80;;;11.77;;
74543;SDS011;63016;55.030;38.710;2023-01-19T10:51:59;30.35;;;10.93;;
74543;SDS011;63016;55.030;38.710;2023-01-19T10:54:26;27.13;;;10.35;;
74543;SDS011;63016;55.030;38.710;2023-01-19T10:57:06;35.60;;;12.77;;
74543;SDS011;63016;55.030;38.710;2023-01-19T11:04:56;35.03;;;11.40;;
74543;SDS011;63016;55.030;38.710;2023-01-19T11:10:17;35.65;;;12.32;;
74543;SDS011;63016;55.030;38.710;2023-01-19T11:12:43;37.88;;;13.15;;
74543;SDS011;63016;55.030;38.710;2023-01-19T11:15:15;31.35;;;11.40;;
74543;SDS011;63016;55.030;38.710;2023-01-19T11:17:46;30.73;;;11.13;;
74543;SDS011;63016;55.030;38.710;2023-01-19T11:20:20;31.63;;;12.75;;
74543;SDS011;63016;55.030;38.710;2023-01-19T11:22:48;36.55;;;12.32;;
74543;SDS011;63016;55.030;38.710;2023-01-19T11:25:32;37.95;;;12.60;;
74543;SDS011;63016;55.030;38.710;2023-01-19T11:27:59;32.65;;;11.90;;
74543;SDS011;63016;55.030;38.710;2023-01-19T11:30:26;38.58;;;12.23;;
74543;SDS011;63016;55.030;38.710;2023-01-19T11:32:52;39.10;;;13.32;;
74543;SDS011;63016;55.030;38.710;2023-01-19T11:38:31;36.20;;;12.38;;
74543;SDS011;63016;55.030;38.710;2023-01-19T11:40:52;37.38;;;13.27;;
74543;SDS011;63016;55.030;38.710;2023-01-19T11:43:21;35.30;;;12.27;;
74543;SDS011;63016;55.030;38.710;2023-01-19T11:45:48;36.08;;;12.50;;
74543;SDS011;63016;55.030;38.710;2023-01-19T11:48:26;30.45;;;12.88;;
74543;SDS011;63016;55.030;38.710;2023-01-19T11:50:57;35.25;;;12.50;;
74543;SDS011;63016;55.030;38.710;2023-01-19T11:53:27;41.28;;;14.10;;
74543;SDS011;63016;55.030;38.710;2023-01-19T11:56:04;35.95;;;13.55;;
74543;SDS011;63016;55.030;38.710;2023-01-19T11:58:38;34.92;;;12.75;;
74543;SDS011;63016;55.030;38.710;2023-01-19T12:06:41;33.58;;;12.45;;
74543;SDS011;63016;55.030;38.710;2023-01-19T12:11:46;40.47;;;13.35;;
74543;SDS011;63016;55.030;38.710;2023-01-19T12:14:18;40.00;;;13.73;;
74543;SDS011;63016;55.030;38.710;2023-01-19T12:16:49;44.05;;;14.32;;
74543;SDS011;63016;55.030;38.710;2023-01-19T12:19:18;35.40;;;13.70;;
74543;SDS011;63016;55.030;38.710;2023-01-19T12:21:49;40.80;;;13.20;;
74543;SDS011;63016;55.030;38.710;2023-01-19T12:24:26;44.95;;;14.05;;
74543;SDS011;63016;55.030;38.710;2023-01-19T12:29:56;44.55;;;14.15;;
74543;SDS011;63016;55.030;38.710;2023-01-19T12:32:32;43.55;;;13.25;;
74543;SDS011;63016;55.030;38.710;2023-01-19T12:35:00;41.95;;;13.07;;
74543;SDS011;63016;55.030;38.710;2023-01-19T12:40:39;41.08;;;13.57;;
74543;SDS011;63016;55.030;38.710;2023-01-19T12:42:46;44.38;;;14.35;;
74543;SDS011;63016;55.030;38.710;2023-01-19T12:45:37;44.70;;;14.15;;
74543;SDS011;63016;55.030;38.710;2023-01-19T12:48:03;34.85;;;13.93;;
74543;SDS011;63016;55.030;38.710;2023-01-19T12:50:34;36.50;;;13.48;;
74543;SDS011;63016;55.030;38.710;2023-01-19T12:53:02;38.78;;;13.73;;
74543;SDS011;63016;55.030;38.710;2023-01-19T12:55:33;41.17;;;13.70;;
74543;SDS011;63016;55.030;38.710;2023-01-19T12:58:20;35.72;;;13.88;;
74543;SDS011;63016;55.030;38.710;2023-01-19T13:00:48;36.53;;;12.95;;
74543;SDS011;63016;55.030;38.710;2023-01-19T13:09:34;36.30;;;13.23;;
74543;SDS011;63016;55.030;38.710;2023-01-19T13:14:46;39.60;;;13.93;;
74543;SDS011;63016;55.030;38.710;2023-01-19T13:17:17;37.75;;;14.15;;
74543;SDS011;63016;55.030;38.710;2023-01-19T13:19:52;36.90;;;14.43;;
74543;SDS011;63016;55.030;38.710;2023-01-19T13:25:49;42.92;;;14.38;;
74543;SDS011;63016;55.030;38.710;2023-01-19T13:28:11;35.85;;;13.70;;
74543;SDS011;63016;55.030;38.710;2023-01-19T13:30:44;37.03;;;13.98;;
74543;SDS011;63016;55.030;38.710;2023-01-19T13:33:21;34.85;;;13.13;;
74543;SDS011;63016;55.030;38.710;2023-01-19T13:35:56;36.17;;;14.30;;
74543;SDS011;63016;55.030;38.710;2023-01-19T13:38:23;40.55;;;14.23;;
74543;SDS011;63016;55.030;38.710;2023-01-19T13:40:50;42.67;;;13.63;;
74543;SDS011;63016;55.030;38.710;2023-01-19T13:43:18;35.95;;;13.02;;
74543;SDS011;63016;55.030;38.710;2023-01-19T13:45:50;39.67;;;13.50;;
74543;SDS011;63016;55.030;38.710;2023-01-19T13:48:17;39.72;;;13.27;;
74543;SDS011;63016;55.030;38.710;2023-01-19T13:51:05;41.45;;;13.82;;
74543;SDS011;63016;55.030;38.710;2023-01-19T13:53:44;44.15;;;14.55;;
74543;SDS011;63016;55.030;38.710;2023-01-19T13:56:18;39.40;;;14.10;;
74543;SDS011;63016;55.030;38.710;2023-01-19T14:01:25;40.38;;;13.25;;
74543;SDS011;63016;55.030;38.710;2023-01-19T14:03:51;37.75;;;13.15;;
74543;SDS011;63016;55.030;38.710;2023-01-19T14:06:29;34.60;;;14.20;;
74543;SDS011;63016;55.030;38.710;2023-01-19T14:11:44;35.97;;;14.45;;
74543;SDS011;63016;55.030;38.710;2023-01-19T14:14:29;38.45;;;13.88;;
74543;SDS011;63016;55.030;38.710;2023-01-19T14:16:55;42.15;;;14.00;;
74543;SDS011;63016;55.030;38.710;2023-01-19T14:19:21;36.97;;;13.32;;
74543;SDS011;63016;55.030;38.710;2023-01-19T14:21:59;42.78;;;13.98;;
74543;SDS011;63016;55.030;38.710;2023-01-19T14:24:27;42.67;;;15.00;;
74543;SDS011;63016;55.030;38.710;2023-01-19T14:27:06;41.78;;;15.77;;
74543;SDS011;63016;55.030;38.710;2023-01-19T14:29:42;35.05;;;13.88;;
74543;SDS011;63016;55.030;38.710;2023-01-19T14:32:22;47.40;;;14.95;;
74543;SDS011;63016;55.030;38.710;2023-01-19T14:34:50;45.90;;;14.93;;
74543;SDS011;63016;55.030;38.710;2023-01-19T14:37:36;42.50;;;15.38;;
74543;SDS011;63016;55.030;38.710;2023-01-19T14:45:13;51.20;;;15.43;;
74543;SDS011;63016;55.030;38.710;2023-01-19T14:47:42;47.50;;;16.00;;
74543;SDS011;63016;55.030;38.710;2023-01-19T14:55:24;41.38;;;14.98;;
74543;SDS011;63016;55.030;38.710;2023-01-19T14:58:07;40.80;;;15.13;;
74543;SDS011;63016;55.030;38.710;2023-01-19T15:00:36;43.63;;;15.40;;
74543;SDS011;63016;55.030;38.710;2023-01-19T15:03:02;44.58;;;14.18;;
74543;SDS011;63016;55.030;38.710;2023-01-19T15:05:30;49.10;;;16.10;;
74543;SDS011;63016;55.030;38.710;2023-01-19T15:07:57;42.28;;;15.45;;
74543;SDS011;63016;55.030;38.710;2023-01-19T15:10:26;46.63;;;15.02;;
74543;SDS011;63016;55.030;38.710;2023-01-19T15:12:52;44.13;;;15.20;;
74543;SDS011;63016;55.030;38.710;2023-01-19T15:15:25;44.88;;;14.82;;
74543;SDS011;63016;55.030;38.710;2023-01-19T15:17:56;44.33;;;15.00;;
74543;SDS011;63016;55.030;38.710;2023-01-19T15:20:23;45.42;;;16.05;;
74543;SDS011;63016;55.030;38.710;2023-01-19T15:22:49;41.25;;;14.90;;
74543;SDS011;63016;55.030;38.710;2023-01-19T15:25:16;45.70;;;14.68;;
74543;SDS011;63016;55.030;38.710;2023-01-19T15:27:43;42.63;;;14.07;;
74543;SDS011;63016;55.030;38.710;2023-01-19T15:32:39;39.03;;;14.35;;
74543;SDS011;63016;55.030;38.710;2023-01-19T15:35:25;44.67;;;15.68;;
74543;SDS011;63016;55.030;38.710;2023-01-19T15:37:51;39.70;;;14.82;;
74543;SDS011;63016;55.030;38.710;2023-01-19T15:40:17;38.95;;;14.77;;
74543;SDS011;63016;55.030;38.710;2023-01-19T15:42:44;39.20;;;13.95;;
74543;SDS011;63016;55.030;38.710;2023-01-19T15:45:16;43.28;;;15.18;;
74543;SDS011;63016;55.030;38.710;2023-01-19T15:48:00;42.28;;;13.82;;
74543;SDS011;63016;55.030;38.710;2023-01-19T15:50:29;43.63;;;14.18;;
74543;SDS011;63016;55.030;38.710;2023-01-19T15:52:55;45.03;;;14.77;;
74543;SDS011;63016;55.030;38.710;2023-01-19T15:55:20;41.63;;;14.10;;
74543;SDS011;63016;55.030;38.710;2023-01-19T15:57:46;37.35;;;14.00;;